sensor_id;sensor_type;location;lat;lon;timestamp;pressure;altitude;pressure_sealevel;temperature;humidity
7966;BME280;4028;43.272;26.932;2023-05-02T00:02:09;99705.28;;;12.38;64.47
7966;BME280;4028;43.272;26.932;2023-05-02T00:04:35;99707.41;;;12.35;65.40
7966;BME280;4028;43.272;26.932;2023-05-02T00:07:01;99704.19;;;12.41;65.45
7966;BME280;4028;43.272;26.932;2023-05-02T00:09:28;99709.91;;;12.46;64.20
7966;BME280;4028;43.272;26.932;2023-05-02T00:11:53;99712.31;;;12.30;65.07
7966;BME280;4028;43.272;26.932;2023-05-02T00:14:19;99714.66;;;12.23;67.14
7966;BME280;4028;43.272;26.932;2023-05-02T00:16:44;99721.09;;;12.20;67.57
7966;BME280;4028;43.272;26.932;2023-05-02T00:19:10;99711.88;;;12.15;68.20
7966;BME280;4028;43.272;26.932;2023-05-02T00:21:35;99722.91;;;12.20;67.73
7966;BME280;4028;43.272;26.932;2023-05-02T00:24:01;99723.19;;;12.07;69.22
7966;BME280;4028;43.272;26.932;2023-05-02T00:26:26;99722.91;;;12.20;68.17
7966;BME280;4028;43.272;26.932;2023-05-02T00:28:53;99725.72;;;12.18;67.88
7966;BME280;4028;43.272;26.932;2023-05-02T00:31:18;99728.78;;;12.04;69.37
7966;BME280;4028;43.272;26.932;2023-05-02T00:33:44;99723.47;;;12.14;68.79
7966;BME280;4028;43.272;26.932;2023-05-02T00:36:16;99727.38;;;12.10;68.79
7966;BME280;4028;43.272;26.932;2023-05-02T00:38:42;99731.03;;;12.09;69.46
7966;BME280;4028;43.272;26.932;2023-05-02T00:41:07;99731.84;;;12.00;70.63
7966;BME280;4028;43.272;26.932;2023-05-02T00:43:33;99719.16;;;11.93;71.65
7966;BME280;4028;43.272;26.932;2023-05-02T00:45:59;99732.81;;;11.99;71.80
7966;BME280;4028;43.272;26.932;2023-05-02T00:48:24;99730.00;;;11.90;73.10
7966;BME280;4028;43.272;26.932;2023-05-02T00:50:50;99722.84;;;11.81;74.52
7966;BME280;4028;43.272;26.932;2023-05-02T00:53:16;99727.38;;;11.90;74.27
7966;BME280;4028;43.272;26.932;2023-05-02T00:55:42;99727.63;;;11.97;73.43
7966;BME280;4028;43.272;26.932;2023-05-02T00:58:13;99717.84;;;11.78;75.74
7966;BME280;4028;43.272;26.932;2023-05-02T01:00:50;99733.78;;;11.88;75.13
7966;BME280;4028;43.272;26.932;2023-05-02T01:03:35;99725.78;;;11.78;75.80
7966;BME280;4028;43.272;26.932;2023-05-02T01:06:21;99736.09;;;11.71;77.04
7966;BME280;4028;43.272;26.932;2023-05-02T01:14:24;99724.63;;;11.61;79.53
7966;BME280;4028;43.272;26.932;2023-05-02T01:16:53;99714.03;;;11.71;78.62
7966;BME280;4028;43.272;26.932;2023-05-02T01:19:35;99703.84;;;11.57;79.31
7966;BME280;4028;43.272;26.932;2023-05-02T01:22:02;99715.41;;;11.56;80.32
7966;BME280;4028;43.272;26.932;2023-05-02T01:29:56;99708.28;;;11.47;81.10
7966;BME280;4028;43.272;26.932;2023-05-02T01:32:24;99715.25;;;11.38;82.37
7966;BME280;4028;43.272;26.932;2023-05-02T01:34:52;99710.34;;;11.33;83.51
7966;BME280;4028;43.272;26.932;2023-05-02T01:37:19;99709.06;;;11.28;84.16
7966;BME280;4028;43.272;26.932;2023-05-02T01:39:45;99691.75;;;11.24;83.85
7966;BME280;4028;43.272;26.932;2023-05-02T01:42:12;99704.78;;;11.36;83.25
7966;BME280;4028;43.272;26.932;2023-05-02T01:44:41;99708.09;;;11.29;84.28
7966;BME280;4028;43.272;26.932;2023-05-02T01:47:08;99705.44;;;11.29;85.36
7966;BME280;4028;43.272;26.932;2023-05-02T01:49:34;99706.09;;;11.11;86.97
7966;BME280;4028;43.272;26.932;2023-05-02T01:52:07;99711.88;;;11.26;87.12
7966;BME280;4028;43.272;26.932;2023-05-02T01:54:36;99714.09;;;11.31;85.51
7966;BME280;4028;43.272;26.932;2023-05-02T01:57:05;99707.94;;;11.30;84.94
7966;BME280;4028;43.272;26.932;2023-05-02T01:59:33;99709.31;;;11.25;85.71
7966;BME280;4028;43.272;26.932;2023-05-02T02:02:01;99708.88;;;11.19;86.86
7966;BME280;4028;43.272;26.932;2023-05-02T02:04:28;99706.53;;;11.16;88.29
7966;BME280;4028;43.272;26.932;2023-05-02T02:07:01;99704.72;;;11.17;88.15
7966;BME280;4028;43.272;26.932;2023-05-02T02:09:28;99708.34;;;11.16;88.49
7966;BME280;4028;43.272;26.932;2023-05-02T02:12:05;99690.25;;;10.90;89.83
7966;BME280;4028;43.272;26.932;2023-05-02T02:14:37;99707.03;;;11.01;90.66
7966;BME280;4028;43.272;26.932;2023-05-02T02:17:08;99705.06;;;11.03;90.39
7966;BME280;4028;43.272;26.932;2023-05-02T02:19:36;99710.06;;;10.96;90.89
7966;BME280;4028;43.272;26.932;2023-05-02T02:22:05;99717.97;;;10.86;92.22
7966;BME280;4028;43.272;26.932;2023-05-02T02:24:35;99720.41;;;10.78;93.91
7966;BME280;4028;43.272;26.932;2023-05-02T02:27:01;99712.63;;;10.77;94.49
7966;BME280;4028;43.272;26.932;2023-05-02T02:29:27;99724.78;;;10.89;93.94
7966;BME280;4028;43.272;26.932;2023-05-02T02:31:52;99718.34;;;10.82;94.09
7966;BME280;4028;43.272;26.932;2023-05-02T02:34:18;99715.50;;;10.74;94.73
7966;BME280;4028;43.272;26.932;2023-05-02T02:36:54;99722.09;;;10.79;95.16
7966;BME280;4028;43.272;26.932;2023-05-02T02:44:55;99727.31;;;10.70;96.23
7966;BME280;4028;43.272;26.932;2023-05-02T02:54:38;99724.13;;;10.66;97.44
7966;BME280;4028;43.272;26.932;2023-05-02T02:56:40;99725.53;;;10.70;97.75
7966;BME280;4028;43.272;26.932;2023-05-02T02:59:18;99725.00;;;10.76;96.97
7966;BME280;4028;43.272;26.932;2023-05-02T03:01:47;99732.22;;;10.74;96.51
7966;BME280;4028;43.272;26.932;2023-05-02T03:04:16;99731.09;;;10.67;97.97
7966;BME280;4028;43.272;26.932;2023-05-02T03:06:43;99692.47;;;10.44;98.50
7966;BME280;4028;43.272;26.932;2023-05-02T03:09:15;99736.50;;;10.65;98.83
7966;BME280;4028;43.272;26.932;2023-05-02T03:11:44;99734.44;;;10.69;99.59
7966;BME280;4028;43.272;26.932;2023-05-02T03:14:12;99733.94;;;10.75;98.83
7966;BME280;4028;43.272;26.932;2023-05-02T03:16:39;99732.31;;;10.63;100.00
7966;BME280;4028;43.272;26.932;2023-05-02T03:19:06;99742.06;;;10.62;100.00
7966;BME280;4028;43.272;26.932;2023-05-02T03:21:32;99737.47;;;10.64;100.00
7966;BME280;4028;43.272;26.932;2023-05-02T03:24:01;99743.72;;;10.63;100.00
7966;BME280;4028;43.272;26.932;2023-05-02T03:26:28;99750.19;;;10.71;100.00
7966;BME280;4028;43.272;26.932;2023-05-02T03:28:54;99748.84;;;10.76;100.00
7966;BME280;4028;43.272;26.932;2023-05-02T03:31:20;99744.91;;;10.71;99.90
7966;BME280;4028;43.272;26.932;2023-05-02T03:33:46;99752.94;;;10.90;100.00
7966;BME280;4028;43.272;26.932;2023-05-02T03:36:12;99749.00;;;10.84;100.00
7966;BME280;4028;43.272;26.932;2023-05-02T03:38:38;99758.22;;;11.11;97.34
7966;BME280;4028;43.272;26.932;2023-05-02T03:41:03;99770.44;;;11.33;95.46
7966;BME280;4028;43.272;26.932;2023-05-02T03:43:30;99768.97;;;11.50;95.01
7966;BME280;4028;43.272;26.932;2023-05-02T03:45:56;99769.88;;;11.69;94.51
7966;BME280;4028;43.272;26.932;2023-05-02T03:48:22;99773.00;;;11.84;93.69
7966;BME280;4028;43.272;26.932;2023-05-02T03:50:49;99780.13;;;12.13;93.07
7966;BME280;4028;43.272;26.932;2023-05-02T03:53:14;99786.59;;;12.49;90.36
7966;BME280;4028;43.272;26.932;2023-05-02T03:55:43;99782.19;;;12.96;86.01
7966;BME280;4028;43.272;26.932;2023-05-02T03:58:09;99787.91;;;13.48;82.30
7966;BME280;4028;43.272;26.932;2023-05-02T04:00:35;99790.38;;;14.50;73.17
7966;BME280;4028;43.272;26.932;2023-05-02T04:03:02;99775.81;;;15.75;64.29
7966;BME280;4028;43.272;26.932;2023-05-02T04:05:28;99785.97;;;16.71;57.75
7966;BME280;4028;43.272;26.932;2023-05-02T04:07:55;99794.31;;;17.72;53.75
7966;BME280;4028;43.272;26.932;2023-05-02T04:10:21;99780.44;;;19.14;49.52
7966;BME280;4028;43.272;26.932;2023-05-02T04:12:46;99779.47;;;20.54;45.27
7966;BME280;4028;43.272;26.932;2023-05-02T04:15:12;99772.44;;;21.71;41.76
7966;BME280;4028;43.272;26.932;2023-05-02T04:17:37;99786.75;;;22.66;39.33
7966;BME280;4028;43.272;26.932;2023-05-02T04:20:04;99773.47;;;23.31;37.82
7966;BME280;4028;43.272;26.932;2023-05-02T04:22:30;99782.78;;;24.06;36.46
7966;BME280;4028;43.272;26.932;2023-05-02T04:24:56;99776.63;;;24.62;35.28
7966;BME280;4028;43.272;26.932;2023-05-02T04:27:21;99785.78;;;25.11;34.39
7966;BME280;4028;43.272;26.932;2023-05-02T04:29:48;99789.97;;;25.51;33.00
7966;BME280;4028;43.272;26.932;2023-05-02T04:32:14;99784.25;;;25.40;32.15
7966;BME280;4028;43.272;26.932;2023-05-02T04:34:39;99793.88;;;24.61;32.87
7966;BME280;4028;43.272;26.932;2023-05-02T04:37:05;99792.78;;;23.21;34.07
7966;BME280;4028;43.272;26.932;2023-05-02T04:39:31;99800.34;;;21.64;36.17
7966;BME280;4028;43.272;26.932;2023-05-02T04:41:56;99800.16;;;20.17;36.08
7966;BME280;4028;43.272;26.932;2023-05-02T04:44:22;99802.03;;;19.13;37.47
7966;BME280;4028;43.272;26.932;2023-05-02T04:46:47;99810.03;;;18.06;39.40
7966;BME280;4028;43.272;26.932;2023-05-02T04:49:13;99804.69;;;17.03;41.27
7966;BME280;4028;43.272;26.932;2023-05-02T04:51:38;99792.28;;;16.13;43.68
7966;BME280;4028;43.272;26.932;2023-05-02T04:54:04;99790.81;;;15.76;44.96
7966;BME280;4028;43.272;26.932;2023-05-02T04:56:29;99806.00;;;15.41;46.98
7966;BME280;4028;43.272;26.932;2023-05-02T04:58:55;99800.47;;;15.08;48.25
7966;BME280;4028;43.272;26.932;2023-05-02T05:01:20;99804.22;;;14.98;50.13
7966;BME280;4028;43.272;26.932;2023-05-02T05:03:46;99813.44;;;14.60;51.72
7966;BME280;4028;43.272;26.932;2023-05-02T05:06:11;99811.34;;;14.36;53.01
7966;BME280;4028;43.272;26.932;2023-05-02T05:08:37;99816.28;;;14.13;59.11
7966;BME280;4028;43.272;26.932;2023-05-02T05:11:03;99816.91;;;13.97;62.80
7966;BME280;4028;43.272;26.932;2023-05-02T05:13:29;99822.22;;;13.79;67.71
7966;BME280;4028;43.272;26.932;2023-05-02T05:15:55;99815.31;;;13.59;72.00
7966;BME280;4028;43.272;26.932;2023-05-02T05:18:20;99814.22;;;13.51;74.12
7966;BME280;4028;43.272;26.932;2023-05-02T05:20:50;99820.50;;;13.50;74.53
7966;BME280;4028;43.272;26.932;2023-05-02T05:23:15;99815.78;;;13.44;74.58
7966;BME280;4028;43.272;26.932;2023-05-02T05:25:41;99820.66;;;13.49;72.73
7966;BME280;4028;43.272;26.932;2023-05-02T05:28:06;99822.00;;;13.63;72.22
7966;BME280;4028;43.272;26.932;2023-05-02T05:30:32;99823.19;;;13.78;68.22
7966;BME280;4028;43.272;26.932;2023-05-02T05:32:57;99819.47;;;14.16;66.23
7966;BME280;4028;43.272;26.932;2023-05-02T05:35:25;99818.50;;;14.53;63.32
7966;BME280;4028;43.272;26.932;2023-05-02T05:37:51;99812.41;;;15.04;61.77
7966;BME280;4028;43.272;26.932;2023-05-02T05:40:17;99823.31;;;15.63;58.16
7966;BME280;4028;43.272;26.932;2023-05-02T05:42:42;99817.84;;;16.23;56.06
7966;BME280;4028;43.272;26.932;2023-05-02T05:45:08;99823.59;;;16.77;53.70
7966;BME280;4028;43.272;26.932;2023-05-02T05:47:34;99822.22;;;17.30;52.21
7966;BME280;4028;43.272;26.932;2023-05-02T05:50:00;99821.22;;;17.79;49.14
7966;BME280;4028;43.272;26.932;2023-05-02T05:52:25;99830.19;;;18.25;48.96
7966;BME280;4028;43.272;26.932;2023-05-02T05:54:54;99813.34;;;18.70;46.20
7966;BME280;4028;43.272;26.932;2023-05-02T05:57:23;99818.09;;;19.36;43.30
7966;BME280;4028;43.272;26.932;2023-05-02T05:59:49;99823.66;;;19.79;43.10
7966;BME280;4028;43.272;26.932;2023-05-02T06:02:15;99809.00;;;20.32;41.78
7966;BME280;4028;43.272;26.932;2023-05-02T06:04:40;99816.69;;;20.57;40.68
7966;BME280;4028;43.272;26.932;2023-05-02T06:07:06;99817.38;;;20.44;40.79
7966;BME280;4028;43.272;26.932;2023-05-02T06:09:31;99820.97;;;20.72;41.26
7966;BME280;4028;43.272;26.932;2023-05-02T06:11:57;99818.84;;;21.11;39.81
7966;BME280;4028;43.272;26.932;2023-05-02T06:14:22;99813.94;;;21.49;38.75
7966;BME280;4028;43.272;26.932;2023-05-02T06:16:48;99803.00;;;21.57;37.45
7966;BME280;4028;43.272;26.932;2023-05-02T06:19:14;99826.00;;;22.01;37.33
7966;BME280;4028;43.272;26.932;2023-05-02T06:21:40;99823.63;;;22.26;37.33
7966;BME280;4028;43.272;26.932;2023-05-02T06:24:05;99822.66;;;22.53;38.06
7966;BME280;4028;43.272;26.932;2023-05-02T06:26:31;99825.34;;;22.67;36.50
7966;BME280;4028;43.272;26.932;2023-05-02T06:28:56;99830.75;;;22.67;36.53
7966;BME280;4028;43.272;26.932;2023-05-02T06:31:22;99824.16;;;23.16;34.83
7966;BME280;4028;43.272;26.932;2023-05-02T06:33:48;99832.47;;;23.34;34.42
7966;BME280;4028;43.272;26.932;2023-05-02T06:36:13;99836.13;;;23.53;34.99
7966;BME280;4028;43.272;26.932;2023-05-02T06:38:39;99824.72;;;23.71;32.75
7966;BME280;4028;43.272;26.932;2023-05-02T06:41:04;99824.94;;;23.49;32.08
7966;BME280;4028;43.272;26.932;2023-05-02T06:43:30;99833.31;;;23.15;31.25
7966;BME280;4028;43.272;26.932;2023-05-02T06:45:57;99832.88;;;23.31;31.06
7966;BME280;4028;43.272;26.932;2023-05-02T06:48:23;99827.88;;;23.34;30.09
7966;BME280;4028;43.272;26.932;2023-05-02T06:50:50;99832.00;;;23.64;30.40
7966;BME280;4028;43.272;26.932;2023-05-02T06:53:16;99827.34;;;23.84;31.16
7966;BME280;4028;43.272;26.932;2023-05-02T06:55:43;99836.00;;;24.06;31.35
7966;BME280;4028;43.272;26.932;2023-05-02T06:58:10;99829.44;;;24.65;30.47
7966;BME280;4028;43.272;26.932;2023-05-02T07:00:36;99828.97;;;24.75;27.88
7966;BME280;4028;43.272;26.932;2023-05-02T07:03:01;99832.41;;;24.88;27.87
7966;BME280;4028;43.272;26.932;2023-05-02T07:05:29;99837.59;;;24.90;28.67
7966;BME280;4028;43.272;26.932;2023-05-02T07:07:56;99842.81;;;24.60;28.78
7966;BME280;4028;43.272;26.932;2023-05-02T07:10:22;99843.00;;;24.90;27.46
7966;BME280;4028;43.272;26.932;2023-05-02T07:12:48;99841.63;;;25.06;26.51
7966;BME280;4028;43.272;26.932;2023-05-02T07:15:13;99842.19;;;25.39;25.72
7966;BME280;4028;43.272;26.932;2023-05-02T07:17:40;99842.78;;;24.92;24.60
7966;BME280;4028;43.272;26.932;2023-05-02T07:20:09;99843.78;;;24.72;24.47
7966;BME280;4028;43.272;26.932;2023-05-02T07:22:34;99835.59;;;24.79;25.86
7966;BME280;4028;43.272;26.932;2023-05-02T07:25:01;99838.19;;;24.67;25.03
7966;BME280;4028;43.272;26.932;2023-05-02T07:27:27;99845.81;;;25.08;24.75
7966;BME280;4028;43.272;26.932;2023-05-02T07:29:53;99827.69;;;25.09;24.34
7966;BME280;4028;43.272;26.932;2023-05-02T07:32:20;99846.66;;;25.27;24.66
7966;BME280;4028;43.272;26.932;2023-05-02T07:34:51;99846.47;;;24.97;23.68
7966;BME280;4028;43.272;26.932;2023-05-02T07:37:20;99850.91;;;25.41;24.41
7966;BME280;4028;43.272;26.932;2023-05-02T07:39:46;99852.19;;;25.82;26.29
7966;BME280;4028;43.272;26.932;2023-05-02T07:42:11;99856.03;;;25.93;24.42
7966;BME280;4028;43.272;26.932;2023-05-02T07:44:36;99821.97;;;25.97;24.14
7966;BME280;4028;43.272;26.932;2023-05-02T07:47:02;99855.28;;;26.34;24.86
7966;BME280;4028;43.272;26.932;2023-05-02T07:49:28;99852.25;;;26.12;24.72
7966;BME280;4028;43.272;26.932;2023-05-02T07:51:53;99851.28;;;25.88;23.67
7966;BME280;4028;43.272;26.932;2023-05-02T07:54:20;99843.09;;;25.95;24.59
7966;BME280;4028;43.272;26.932;2023-05-02T07:56:46;99837.13;;;25.86;22.98
7966;BME280;4028;43.272;26.932;2023-05-02T07:59:12;99852.72;;;25.91;24.47
7966;BME280;4028;43.272;26.932;2023-05-02T08:01:39;99856.09;;;26.35;24.93
7966;BME280;4028;43.272;26.932;2023-05-02T08:04:05;99848.75;;;26.42;25.15
7966;BME280;4028;43.272;26.932;2023-05-02T08:06:31;99847.56;;;26.80;24.50
7966;BME280;4028;43.272;26.932;2023-05-02T08:08:57;99845.09;;;26.78;23.90
7966;BME280;4028;43.272;26.932;2023-05-02T08:11:23;99848.88;;;26.29;24.66
7966;BME280;4028;43.272;26.932;2023-05-02T08:13:53;99851.50;;;26.35;23.68
7966;BME280;4028;43.272;26.932;2023-05-02T08:16:19;99849.63;;;26.66;23.82
7966;BME280;4028;43.272;26.932;2023-05-02T08:18:45;99858.66;;;26.90;23.84
7966;BME280;4028;43.272;26.932;2023-05-02T08:21:10;99844.69;;;26.63;23.65
7966;BME280;4028;43.272;26.932;2023-05-02T08:23:36;99838.72;;;26.24;23.38
7966;BME280;4028;43.272;26.932;2023-05-02T08:26:02;99839.94;;;26.10;22.60
7966;BME280;4028;43.272;26.932;2023-05-02T08:28:28;99851.84;;;26.09;23.85
7966;BME280;4028;43.272;26.932;2023-05-02T08:30:54;99846.88;;;26.42;22.69
7966;BME280;4028;43.272;26.932;2023-05-02T08:33:19;99839.66;;;26.18;23.50
7966;BME280;4028;43.272;26.932;2023-05-02T08:35:45;99837.50;;;26.38;23.64
7966;BME280;4028;43.272;26.932;2023-05-02T08:38:10;99825.56;;;26.69;22.92
7966;BME280;4028;43.272;26.932;2023-05-02T08:40:36;99831.63;;;26.41;23.66
7966;BME280;4028;43.272;26.932;2023-05-02T08:43:03;99833.16;;;26.19;24.99
7966;BME280;4028;43.272;26.932;2023-05-02T08:45:34;99828.13;;;26.23;24.20
7966;BME280;4028;43.272;26.932;2023-05-02T08:48:06;99826.38;;;26.28;25.46
7966;BME280;4028;43.272;26.932;2023-05-02T08:50:39;99828.69;;;26.96;25.22
7966;BME280;4028;43.272;26.932;2023-05-02T08:53:07;99829.22;;;27.29;25.10
7966;BME280;4028;43.272;26.932;2023-05-02T08:55:34;99832.66;;;26.70;24.82
7966;BME280;4028;43.272;26.932;2023-05-02T08:58:02;99838.56;;;26.37;25.13
7966;BME280;4028;43.272;26.932;2023-05-02T09:00:28;99831.16;;;26.44;25.74
7966;BME280;4028;43.272;26.932;2023-05-02T09:03:32;99830.91;;;26.76;25.76
7966;BME280;4028;43.272;26.932;2023-05-02T09:06:07;99819.13;;;26.94;23.96
7966;BME280;4028;43.272;26.932;2023-05-02T09:08:36;99824.22;;;26.49;25.11
7966;BME280;4028;43.272;26.932;2023-05-02T09:11:02;99828.75;;;26.36;24.64
7966;BME280;4028;43.272;26.932;2023-05-02T09:13:41;99818.38;;;25.85;24.45
7966;BME280;4028;43.272;26.932;2023-05-02T09:16:13;99816.28;;;25.44;24.81
7966;BME280;4028;43.272;26.932;2023-05-02T09:18:42;99817.34;;;25.42;25.47
7966;BME280;4028;43.272;26.932;2023-05-02T09:21:14;99803.75;;;25.49;25.65
7966;BME280;4028;43.272;26.932;2023-05-02T09:23:41;99799.47;;;25.78;25.39
7966;BME280;4028;43.272;26.932;2023-05-02T09:26:20;99811.50;;;26.01;25.23
7966;BME280;4028;43.272;26.932;2023-05-02T09:28:53;99802.91;;;26.34;25.63
7966;BME280;4028;43.272;26.932;2023-05-02T09:31:20;99803.72;;;26.34;24.96
7966;BME280;4028;43.272;26.932;2023-05-02T09:33:46;99799.94;;;26.54;25.37
7966;BME280;4028;43.272;26.932;2023-05-02T09:36:14;99793.88;;;26.93;24.77
7966;BME280;4028;43.272;26.932;2023-05-02T09:38:44;99799.19;;;27.00;24.26
7966;BME280;4028;43.272;26.932;2023-05-02T09:41:11;99810.00;;;26.77;23.55
7966;BME280;4028;43.272;26.932;2023-05-02T09:43:38;99808.97;;;26.78;23.99
7966;BME280;4028;43.272;26.932;2023-05-02T09:46:08;99800.38;;;26.92;23.82
7966;BME280;4028;43.272;26.932;2023-05-02T09:51:20;99788.41;;;26.40;23.62
7966;BME280;4028;43.272;26.932;2023-05-02T09:53:47;99799.53;;;26.20;24.24
7966;BME280;4028;43.272;26.932;2023-05-02T09:56:13;99793.00;;;26.39;24.05
7966;BME280;4028;43.272;26.932;2023-05-02T09:58:39;99796.91;;;26.02;23.92
7966;BME280;4028;43.272;26.932;2023-05-02T10:01:29;99791.56;;;25.95;24.50
7966;BME280;4028;43.272;26.932;2023-05-02T10:03:55;99787.28;;;26.17;25.74
7966;BME280;4028;43.272;26.932;2023-05-02T10:06:21;99778.72;;;26.62;24.33
7966;BME280;4028;43.272;26.932;2023-05-02T10:08:47;99777.53;;;26.82;25.06
7966;BME280;4028;43.272;26.932;2023-05-02T10:11:13;99783.72;;;26.77;24.33
7966;BME280;4028;43.272;26.932;2023-05-02T10:13:40;99778.94;;;26.61;25.41
7966;BME280;4028;43.272;26.932;2023-05-02T10:16:10;99774.94;;;26.63;23.57
7966;BME280;4028;43.272;26.932;2023-05-02T10:21:07;99776.34;;;26.54;24.14
7966;BME280;4028;43.272;26.932;2023-05-02T10:23:34;99772.09;;;26.47;24.02
7966;BME280;4028;43.272;26.932;2023-05-02T10:26:00;99770.91;;;26.66;23.85
7966;BME280;4028;43.272;26.932;2023-05-02T10:28:26;99780.75;;;26.90;24.55
7966;BME280;4028;43.272;26.932;2023-05-02T10:30:53;99779.94;;;26.36;24.07
7966;BME280;4028;43.272;26.932;2023-05-02T10:33:20;99770.53;;;26.21;24.62
7966;BME280;4028;43.272;26.932;2023-05-02T10:35:46;99759.09;;;26.49;24.20
7966;BME280;4028;43.272;26.932;2023-05-02T10:38:15;99766.44;;;26.60;24.45
7966;BME280;4028;43.272;26.932;2023-05-02T10:40:48;99773.50;;;26.61;23.48
7966;BME280;4028;43.272;26.932;2023-05-02T10:43:20;99765.59;;;26.59;23.78
7966;BME280;4028;43.272;26.932;2023-05-02T10:45:46;99760.56;;;26.33;23.96
7966;BME280;4028;43.272;26.932;2023-05-02T10:50:49;99768.41;;;26.11;24.52
7966;BME280;4028;43.272;26.932;2023-05-02T10:53:33;99773.53;;;26.31;24.09
7966;BME280;4028;43.272;26.932;2023-05-02T10:58:45;99763.38;;;26.68;24.65
7966;BME280;4028;43.272;26.932;2023-05-02T11:03:56;99768.09;;;26.61;23.49
7966;BME280;4028;43.272;26.932;2023-05-02T11:06:22;99767.59;;;25.92;24.28
7966;BME280;4028;43.272;26.932;2023-05-02T11:08:48;99770.91;;;25.94;25.38
7966;BME280;4028;43.272;26.932;2023-05-02T11:14:08;99766.56;;;26.23;24.66
7966;BME280;4028;43.272;26.932;2023-05-02T11:22:31;99756.00;;;26.15;25.51
7966;BME280;4028;43.272;26.932;2023-05-02T11:24:57;99757.22;;;26.19;25.33
7966;BME280;4028;43.272;26.932;2023-05-02T11:30:00;99743.19;;;26.22;25.56
7966;BME280;4028;43.272;26.932;2023-05-02T11:35:28;99751.19;;;25.87;25.41
7966;BME280;4028;43.272;26.932;2023-05-02T11:40:24;99741.84;;;26.01;26.85
7966;BME280;4028;43.272;26.932;2023-05-02T11:42:51;99736.28;;;25.96;25.53
7966;BME280;4028;43.272;26.932;2023-05-02T11:45:17;99738.69;;;25.67;25.79
7966;BME280;4028;43.272;26.932;2023-05-02T11:47:45;99736.84;;;25.50;26.98
7966;BME280;4028;43.272;26.932;2023-05-02T11:50:11;99743.00;;;25.38;26.46
7966;BME280;4028;43.272;26.932;2023-05-02T11:52:42;99734.34;;;25.11;26.51
7966;BME280;4028;43.272;26.932;2023-05-02T11:55:12;99736.25;;;25.29;27.19
7966;BME280;4028;43.272;26.932;2023-05-02T11:57:38;99736.47;;;25.64;27.82
7966;BME280;4028;43.272;26.932;2023-05-02T12:00:05;99735.03;;;25.80;26.62
7966;BME280;4028;43.272;26.932;2023-05-02T12:02:42;99744.72;;;25.88;26.83
7966;BME280;4028;43.272;26.932;2023-05-02T12:05:10;99732.41;;;25.55;27.18
7966;BME280;4028;43.272;26.932;2023-05-02T12:07:42;99729.69;;;25.55;27.77
7966;BME280;4028;43.272;26.932;2023-05-02T12:10:09;99730.03;;;25.59;28.46
7966;BME280;4028;43.272;26.932;2023-05-02T12:12:36;99731.38;;;25.68;27.62
7966;BME280;4028;43.272;26.932;2023-05-02T12:15:08;99720.66;;;25.43;26.89
7966;BME280;4028;43.272;26.932;2023-05-02T12:17:37;99731.19;;;25.33;27.66
7966;BME280;4028;43.272;26.932;2023-05-02T12:20:04;99720.88;;;25.41;28.16
7966;BME280;4028;43.272;26.932;2023-05-02T12:22:34;99720.75;;;25.36;27.91
7966;BME280;4028;43.272;26.932;2023-05-02T12:25:14;99719.84;;;25.24;27.06
7966;BME280;4028;43.272;26.932;2023-05-02T12:27:40;99712.97;;;25.03;27.39
7966;BME280;4028;43.272;26.932;2023-05-02T12:30:06;99709.72;;;24.95;27.22
7966;BME280;4028;43.272;26.932;2023-05-02T12:32:35;99718.09;;;24.86;27.14
7966;BME280;4028;43.272;26.932;2023-05-02T12:35:02;99712.38;;;24.76;28.19
7966;BME280;4028;43.272;26.932;2023-05-02T12:37:28;99695.31;;;24.76;28.59
7966;BME280;4028;43.272;26.932;2023-05-02T12:39:55;99710.31;;;24.97;28.65
7966;BME280;4028;43.272;26.932;2023-05-02T12:42:22;99689.97;;;24.87;27.66
7966;BME280;4028;43.272;26.932;2023-05-02T12:44:49;99717.28;;;24.61;29.17
7966;BME280;4028;43.272;26.932;2023-05-02T12:47:19;99703.06;;;24.47;27.98
7966;BME280;4028;43.272;26.932;2023-05-02T12:49:55;99710.53;;;24.52;27.81
7966;BME280;4028;43.272;26.932;2023-05-02T12:52:45;99702.25;;;24.47;28.89
7966;BME280;4028;43.272;26.932;2023-05-02T12:55:15;99709.75;;;24.45;29.01
7966;BME280;4028;43.272;26.932;2023-05-02T12:57:40;99696.06;;;24.33;28.67
7966;BME280;4028;43.272;26.932;2023-05-02T13:00:06;99693.25;;;24.21;28.14
7966;BME280;4028;43.272;26.932;2023-05-02T13:02:32;99687.69;;;24.16;31.00
7966;BME280;4028;43.272;26.932;2023-05-02T13:04:58;99700.03;;;24.30;28.93
7966;BME280;4028;43.272;26.932;2023-05-02T13:07:23;99698.59;;;24.28;28.14
7966;BME280;4028;43.272;26.932;2023-05-02T13:09:49;99674.53;;;24.20;29.65
7966;BME280;4028;43.272;26.932;2023-05-02T13:12:15;99684.97;;;24.48;28.92
7966;BME280;4028;43.272;26.932;2023-05-02T13:14:47;99699.81;;;24.38;28.70
7966;BME280;4028;43.272;26.932;2023-05-02T13:17:14;99679.44;;;24.36;28.78
7966;BME280;4028;43.272;26.932;2023-05-02T13:19:39;99686.63;;;24.17;28.78
7966;BME280;4028;43.272;26.932;2023-05-02T13:22:05;99688.75;;;24.08;28.38
7966;BME280;4028;43.272;26.932;2023-05-02T13:24:32;99677.03;;;23.90;29.12
7966;BME280;4028;43.272;26.932;2023-05-02T13:27:00;99677.50;;;23.80;29.00
7966;BME280;4028;43.272;26.932;2023-05-02T13:29:26;99690.59;;;23.83;30.07
7966;BME280;4028;43.272;26.932;2023-05-02T13:31:52;99695.59;;;23.79;29.64
7966;BME280;4028;43.272;26.932;2023-05-02T13:34:17;99682.53;;;23.76;29.50
7966;BME280;4028;43.272;26.932;2023-05-02T13:36:43;99695.16;;;23.82;28.66
7966;BME280;4028;43.272;26.932;2023-05-02T13:39:10;99685.66;;;23.73;29.59
7966;BME280;4028;43.272;26.932;2023-05-02T13:41:37;99670.06;;;23.75;28.70
7966;BME280;4028;43.272;26.932;2023-05-02T13:44:02;99687.09;;;23.76;28.06
7966;BME280;4028;43.272;26.932;2023-05-02T13:46:28;99677.66;;;23.47;28.46
7966;BME280;4028;43.272;26.932;2023-05-02T13:48:53;99676.03;;;23.39;29.52
7966;BME280;4028;43.272;26.932;2023-05-02T13:51:19;99671.06;;;23.36;29.00
7966;BME280;4028;43.272;26.932;2023-05-02T13:53:44;99682.91;;;23.28;28.92
7966;BME280;4028;43.272;26.932;2023-05-02T13:56:10;99671.91;;;23.30;29.20
7966;BME280;4028;43.272;26.932;2023-05-02T13:58:35;99666.69;;;23.35;30.05
7966;BME280;4028;43.272;26.932;2023-05-02T14:01:01;99664.00;;;23.28;30.28
7966;BME280;4028;43.272;26.932;2023-05-02T14:03:26;99686.66;;;23.34;29.37
7966;BME280;4028;43.272;26.932;2023-05-02T14:05:52;99676.94;;;23.20;28.52